Time;durP1;ratioP1;P1;durP2;ratioP2;P2;SDS_P1;SDS_P2;PMS_P1;PMS_P2;Temp;Humidity;BMP_temperature;BMP_pressure;BME280_temperature;BME280_humidity;BME280_pressure;Samples;Min_cycle;Max_cycle;Signal;HPM_P1;HPM_P2
2022/09/02 00:00:19;;;;;;;6.55;5.95;;;;;;;19.10;82.93;94151.63;2619149;39;20669;-79
2022/09/02 00:02:50;;;;;;;5.93;5.43;;;;;;;19.68;81.27;94189.19;2618093;47;20156;-80
2022/09/02 00:05:22;;;;;;;6.20;5.70;;;;;;;20.33;77.45;94194.94;2617824;54;20149;-80
2022/09/02 00:07:51;;;;;;;6.28;5.75;;;;;;;21.10;72.51;94190.31;2617969;47;20149;-79
2022/09/02 00:10:19;;;;;;;5.90;5.50;;;;;;;21.33;71.28;94185.66;2617873;54;20160;-80
2022/09/02 00:12:48;;;;;;;4.88;4.47;;;;;;;21.42;70.75;94192.00;2617907;54;20149;-79
2022/09/02 00:15:17;;;;;;;6.65;5.95;;;;;;;21.67;68.81;94172.13;2617912;47;20157;-79
2022/09/02 00:17:46;;;;;;;7.10;4.93;;;;;;;21.96;68.10;94208.34;2617632;46;20209;-80
2022/09/02 00:20:15;;;;;;;5.47;4.90;;;;;;;22.09;67.47;94193.72;2618727;47;20165;-80
2022/09/02 00:22:46;;;;;;;5.50;5.10;;;;;;;22.10;67.13;94186.50;2623734;54;20149;-80
2022/09/02 00:25:16;;;;;;;5.60;5.13;;;;;;;21.94;67.93;94202.59;2618101;47;20661;-80
2022/09/02 00:27:44;;;;;;;4.65;4.25;;;;;;;21.90;68.46;94219.25;2617656;54;20137;-80
2022/09/02 00:30:15;;;;;;;8.50;4.93;;;;;;;21.86;68.19;94214.31;2617913;47;20164;-79
2022/09/02 00:32:44;;;;;;;6.57;4.82;;;;;;;21.34;70.49;94206.53;2618139;54;20149;-79
2022/09/02 00:35:13;;;;;;;4.85;4.45;;;;;;;21.59;69.41;94219.09;2617923;47;20264;-81
2022/09/02 00:37:41;;;;;;;5.75;4.70;;;;;;;21.96;67.94;94214.13;2618431;47;20149;-79
2022/09/02 00:40:14;;;;;;;5.75;5.22;;;;;;;21.73;68.59;94197.97;2617848;54;20149;-78
2022/09/02 00:42:43;;;;;;;5.65;5.20;;;;;;;21.24;69.77;94178.59;2618175;47;20145;-79
2022/09/02 00:45:13;;;;;;;5.50;5.10;;;;;;;21.46;69.60;94209.91;2619097;39;20882;-80
2022/09/02 00:47:44;;;;;;;5.88;5.43;;;;;;;20.77;72.60;94205.19;2617938;54;20181;-79
2022/09/02 00:50:18;;;;;;;6.55;5.55;;;;;;;20.56;73.38;94192.50;2618038;47;20248;-79
2022/09/02 00:52:50;;;;;;;5.78;5.18;;;;;;;20.99;70.44;94166.72;2618136;47;20156;-82
2022/09/02 00:55:24;;;;;;;6.72;6.20;;;;;;;21.42;69.73;94209.28;2619174;54;20396;-80
2022/09/02 00:57:58;;;;;;;5.60;5.20;;;;;;;21.25;71.13;94209.53;2618558;47;20141;-80
2022/09/02 01:00:29;;;;;;;5.47;4.97;;;;;;;21.02;72.23;94234.34;2618747;47;20744;-80
2022/09/02 01:03:01;;;;;;;5.95;5.43;;;;;;;20.85;73.03;94227.38;2618025;54;20133;-79
2022/09/02 01:05:35;;;;;;;7.55;5.10;;;;;;;20.94;71.43;94197.03;2617866;54;20165;-80
2022/09/02 01:08:06;;;;;;;6.20;5.57;;;;;;;21.61;68.86;94199.56;2620135;47;20251;-79
2022/09/02 01:10:38;;;;;;;5.55;5.05;;;;;;;21.51;70.01;94207.69;2617913;54;20157;-79
2022/09/02 01:13:09;;;;;;;8.90;5.28;;;;;;;21.72;69.15;94213.84;2621602;47;20149;-79
2022/09/02 01:15:42;;;;;;;6.22;5.65;;;;;;;21.67;68.85;94213.19;2620137;54;20160;-80
2022/09/02 01:18:14;;;;;;;5.25;4.85;;;;;;;21.93;68.10;94223.53;2618128;54;20168;-80
2022/09/02 01:20:44;;;;;;;5.57;5.03;;;;;;;21.49;69.76;94202.66;2618303;54;20164;-80
2022/09/02 01:23:16;;;;;;;5.32;4.82;;;;;;;21.15;71.66;94212.56;2618306;47;20171;-80
2022/09/02 01:25:47;;;;;;;5.72;5.22;;;;;;;21.15;72.18;94235.59;2618522;54;20156;-80
2022/09/02 01:28:18;;;;;;;5.20;4.82;;;;;;;20.96;73.05;94225.78;2618800;54;20141;-80
2022/09/02 01:30:51;;;;;;;4.53;3.90;;;;;;;20.70;74.23;94223.25;2622795;54;20153;-79
2022/09/02 01:33:21;;;;;;;4.07;3.78;;;;;;;20.64;74.12;94218.28;2622858;54;20153;-80
2022/09/02 01:35:51;;;;;;;2.95;2.70;;;;;;;20.23;74.68;94169.16;2628269;47;20159;-80
2022/09/02 01:38:23;;;;;;;9.65;3.15;;;;;;;20.69;73.95;94193.06;2621135;54;20145;-79
2022/09/02 01:40:52;;;;;;;3.55;3.25;;;;;;;20.61;74.31;94178.81;2618443;54;20145;-80
2022/09/02 01:43:23;;;;;;;4.22;3.92;;;;;;;20.51;73.97;94154.44;2618655;54;20141;-82
2022/09/02 01:45:54;;;;;;;2.22;2.13;;;;;;;20.87;72.68;94164.03;2618885;54;20149;-80
2022/09/02 01:48:24;;;;;;;2.50;2.33;;;;;;;20.91;72.98;94163.94;2618515;54;20156;-80
2022/09/02 01:50:56;;;;;;;2.90;2.70;;;;;;;20.71;74.51;94149.88;2618460;47;20662;-81
2022/09/02 01:53:29;;;;;;;2.35;2.25;;;;;;;20.62;74.84;94157.91;2618257;47;20175;-80
2022/09/02 01:55:59;;;;;;;2.45;2.35;;;;;;;20.12;75.01;94121.88;2618122;54;20152;-79
2022/09/02 01:58:28;;;;;;;2.85;2.50;;;;;;;20.43;75.22;94163.19;2618580;47;20172;-79
2022/09/02 02:01:00;;;;;;;2.65;2.45;;;;;;;20.27;73.92;94143.25;2618073;47;20153;-81
2022/09/02 02:03:29;;;;;;;2.40;2.30;;;;;;;19.81;76.33;94113.63;2619105;31;20562;-80
2022/09/02 02:05:58;;;;;;;2.90;2.70;;;;;;;19.74;77.84;94148.91;2617833;47;20145;-80
2022/09/02 02:08:31;;;;;;;2.85;2.65;;;;;;;19.62;80.39;94138.25;2617866;54;20145;-80
2022/09/02 02:11:01;;;;;;;2.90;2.75;;;;;;;20.06;78.62;94148.53;2617467;54;20141;-80
2022/09/02 02:13:31;;;;;;;3.58;1.92;;;;;;;20.34;74.99;94144.59;2617761;47;20656;-81
2022/09/02 02:16:01;;;;;;;2.50;2.30;;;;;;;20.32;76.47;94161.88;2619569;54;20152;-81
2022/09/02 02:18:31;;;;;;;2.15;1.95;;;;;;;20.24;75.63;94164.84;2618380;54;20187;-81
2022/09/02 02:21:00;;;;;;;2.03;1.80;;;;;;;20.29;75.07;94146.09;2617744;47;20691;-80
2022/09/02 02:23:33;;;;;;;3.05;2.30;;;;;;;20.74;72.41;94131.13;2618947;54;20658;-80
2022/09/02 02:26:02;;;;;;;2.70;2.50;;;;;;;20.47;73.53;94127.91;2618500;39;20553;-80
2022/09/02 02:28:32;;;;;;;2.42;2.22;;;;;;;20.71;73.39;94155.63;2617643;47;20216;-81
2022/09/02 02:31:01;;;;;;;2.45;2.25;;;;;;;21.42;70.42;94158.16;2617922;47;20188;-80
2022/09/02 02:33:32;;;;;;;1.80;1.70;;;;;;;21.07;70.84;94134.91;2622939;47;20134;-80
2022/09/02 02:36:03;;;;;;;2.35;2.15;;;;;;;19.90;75.08;94133.66;2620549;47;20179;-80
2022/09/02 02:38:37;;;;;;;2.20;2.10;;;;;;;18.92;82.51;94168.97;2618549;54;20259;-80
2022/09/02 02:41:08;;;;;;;3.03;2.83;;;;;;;18.45;84.98;94142.72;2618048;54;20149;-80
2022/09/02 02:43:38;;;;;;;3.72;2.65;;;;;;;18.10;88.26;94159.38;2618121;47;20198;-79
2022/09/02 02:46:08;;;;;;;3.63;3.27;;;;;;;17.98;90.11;94168.75;2618238;54;20744;-79
2022/09/02 02:48:38;;;;;;;3.20;2.93;;;;;;;18.05;90.99;94181.59;2624017;47;20153;-79
2022/09/02 02:51:08;;;;;;;3.13;2.93;;;;;;;17.90;91.70;94168.06;2619635;47;20142;-80
2022/09/02 02:53:40;;;;;;;3.43;3.20;;;;;;;17.87;91.63;94184.53;2617846;47;20645;-79
2022/09/02 02:56:10;;;;;;;2.83;2.63;;;;;;;17.70;91.82;94158.09;2617232;54;20148;-80
2022/09/02 02:58:38;;;;;;;2.73;2.53;;;;;;;18.29;89.17;94160.03;2617000;47;20157;-80
2022/09/02 03:01:08;;;;;;;2.70;2.58;;;;;;;18.65;86.10;94182.06;2617168;54;20164;-79
2022/09/02 03:03:37;;;;;;;2.80;2.60;;;;;;;17.98;87.91;94157.28;2616814;47;20152;-79
2022/09/02 03:06:06;;;;;;;3.00;2.77;;;;;;;17.86;89.36;94173.81;2617218;54;20282;-81
2022/09/02 03:08:36;;;;;;;2.40;2.30;;;;;;;17.71;89.73;94153.09;2617729;54;20134;-79
2022/09/02 03:11:08;;;;;;;2.80;2.60;;;;;;;17.84;89.39;94179.53;2618142;47;20175;-81
2022/09/02 03:13:37;;;;;;;2.37;2.27;;;;;;;17.54;89.40;94138.06;2617756;47;20152;-79
2022/09/02 03:16:07;;;;;;;7.33;2.43;;;;;;;17.80;90.95;94173.81;2617243;54;20145;-79
2022/09/02 03:18:37;;;;;;;3.10;2.80;;;;;;;17.77;90.81;94164.50;2617161;54;20160;-80
2022/09/02 03:21:09;;;;;;;3.13;2.83;;;;;;;17.80;90.63;94153.75;2617073;54;20153;-80
2022/09/02 03:23:38;;;;;;;2.73;2.53;;;;;;;18.10;89.66;94173.72;2617441;54;20163;-78
2022/09/02 03:26:15;;;;;;;3.00;2.80;;;;;;;18.27;87.76;94152.16;2619906;31;20606;-79
2022/09/02 03:28:44;;;;;;;2.80;2.60;;;;;;;18.52;86.27;94169.22;2617188;54;20165;-80
2022/09/02 03:31:18;;;;;;;3.13;2.83;;;;;;;18.42;85.11;94124.84;2617031;54;20200;-80
2022/09/02 03:33:47;;;;;;;2.80;2.38;;;;;;;18.89;84.27;94164.69;2618006;39;20535;-80
2022/09/02 03:36:24;;;;;;;2.70;2.50;;;;;;;19.20;83.87;94191.03;2617140;47;20153;-82
2022/09/02 03:38:53;;;;;;;3.47;3.17;;;;;;;19.07;82.81;94178.91;2617411;39;20656;-81
2022/09/02 03:41:25;;;;;;;3.03;2.72;;;;;;;19.54;81.24;94187.19;2617430;47;20661;-79
2022/09/02 03:43:54;;;;;;;2.90;2.70;;;;;;;19.58;80.90;94198.59;2617806;47;20145;-80
2022/09/02 03:46:23;;;;;;;2.70;2.50;;;;;;;19.45;81.01;94203.00;2618604;47;20152;-79
2022/09/02 03:48:53;;;;;;;2.90;2.70;;;;;;;18.38;85.72;94179.31;2618297;47;20649;-80
2022/09/02 03:51:22;;;;;;;3.75;3.38;;;;;;;18.34;88.10;94202.28;2620966;54;20222;-80
2022/09/02 03:53:51;;;;;;;4.32;3.67;;;;;;;18.09;89.43;94193.06;2621576;46;20148;-79
2022/09/02 03:56:20;;;;;;;2.83;2.63;;;;;;;18.29;89.28;94208.75;2618821;39;20244;-80
2022/09/02 03:58:54;;;;;;;2.97;2.77;;;;;;;18.53;88.13;94213.66;2619707;54;20156;-81
2022/09/02 04:01:26;;;;;;;4.20;3.88;;;;;;;18.78;86.84;94226.47;2625107;47;20384;-81
2022/09/02 04:03:55;;;;;;;3.63;3.33;;;;;;;18.72;85.16;94180.59;2618671;47;20157;-81
2022/09/02 04:06:26;;;;;;;3.58;2.72;;;;;;;18.96;85.34;94225.63;2619143;54;20145;-79
2022/09/02 04:08:55;;;;;;;3.25;2.95;;;;;;;18.48;87.35;94213.66;2618294;47;20152;-80
2022/09/02 04:11:25;;;;;;;4.53;3.07;;;;;;;18.35;89.04;94220.19;2618311;47;20141;-80
2022/09/02 04:13:56;;;;;;;3.78;3.40;;;;;;;18.46;88.32;94219.41;2618113;47;20160;-80
2022/09/02 04:16:28;;;;;;;5.28;4.80;;;;;;;19.01;86.67;94250.69;2617833;47;20392;-79
2022/09/02 04:19:00;;;;;;;3.97;3.67;;;;;;;19.44;82.78;94222.41;2618601;54;20139;-81
2022/09/02 04:21:29;;;;;;;3.97;3.60;;;;;;;20.37;77.07;94246.66;2618083;54;20155;-79
2022/09/02 04:23:58;;;;;;;3.53;2.90;;;;;;;20.33;77.57;94237.38;2617600;47;20160;-80
2022/09/02 04:26:27;;;;;;;3.33;3.08;;;;;;;20.09;77.34;94212.47;2618024;54;20180;-80
2022/09/02 04:28:59;;;;;;;3.47;3.28;;;;;;;20.33;77.72;94252.47;2617872;47;20133;-79
2022/09/02 04:31:30;;;;;;;3.33;3.05;;;;;;;20.31;77.29;94246.72;2617577;54;20149;-79
2022/09/02 04:34:00;;;;;;;5.70;4.00;;;;;;;19.28;82.54;94241.91;2618875;47;20168;-80
2022/09/02 04:36:31;;;;;;;3.75;3.45;;;;;;;19.07;84.03;94259.28;2618422;47;20149;-79
2022/09/02 04:39:00;;;;;;;4.72;4.32;;;;;;;18.54;86.47;94238.75;2617499;47;20137;-80
2022/09/02 04:41:34;;;;;;;5.63;5.13;;;;;;;18.36;88.60;94256.03;2617843;39;20547;-79
2022/09/02 04:44:07;;;;;;;5.22;4.47;;;;;;;17.84;92.04;94260.47;2617677;54;20737;-79
2022/09/02 04:46:35;;;;;;;5.07;4.67;;;;;;;17.71;94.26;94265.50;2617426;47;20149;-80
2022/09/02 04:49:05;;;;;;;7.57;4.50;;;;;;;17.57;95.09;94253.31;2617572;39;20566;-80
2022/09/02 04:51:34;;;;;;;6.00;5.50;;;;;;;17.31;96.53;94251.16;2617363;54;20153;-81
2022/09/02 04:54:03;;;;;;;5.97;5.47;;;;;;;17.29;97.45;94239.72;2618658;54;20153;-81
2022/09/02 04:56:33;;;;;;;5.87;5.33;;;;;;;17.24;97.80;94255.44;2619182;39;20526;-80
2022/09/02 04:59:06;;;;;;;7.33;4.97;;;;;;;17.42;97.79;94272.63;2618777;54;20252;-81
2022/09/02 05:01:36;;;;;;;6.43;5.83;;;;;;;17.39;98.01;94271.19;2618515;47;20149;-81
2022/09/02 05:04:08;;;;;;;5.43;4.80;;;;;;;17.40;98.20;94259.03;2618632;47;20145;-81
2022/09/02 05:06:38;;;;;;;5.07;4.60;;;;;;;17.31;97.08;94257.59;2618842;47;20637;-81
2022/09/02 05:09:08;;;;;;;6.07;4.77;;;;;;;17.03;97.28;94206.81;2619195;54;20244;-81
2022/09/02 05:11:37;;;;;;;5.03;4.63;;;;;;;17.34;96.49;94238.28;2625923;47;20133;-81
2022/09/02 05:14:11;;;;;;;4.70;4.30;;;;;;;17.58;96.34;94255.47;2626437;54;20157;-81
2022/09/02 05:16:41;;;;;;;7.03;4.57;;;;;;;17.71;96.15;94268.34;2626134;54;20155;-82
2022/09/02 05:19:12;;;;;;;4.60;4.20;;;;;;;17.68;95.89;94261.19;2625708;54;20153;-83
2022/09/02 05:21:42;;;;;;;4.23;3.93;;;;;;;17.92;93.90;94265.44;2625713;54;20165;-82
2022/09/02 05:24:13;;;;;;;5.50;4.65;;;;;;;17.94;93.14;94265.44;2622679;54;20389;-81
2022/09/02 05:26:43;;;;;;;3.80;3.50;;;;;;;17.87;93.26;94281.94;2623751;47;20179;-81
2022/09/02 05:29:17;;;;;;;4.53;4.13;;;;;;;17.90;94.05;94283.38;2624104;47;20165;-81
2022/09/02 05:31:47;;;;;;;4.67;4.37;;;;;;;17.93;93.63;94275.47;2624849;54;20184;-83
2022/09/02 05:34:16;;;;;;;4.32;3.95;;;;;;;17.91;92.58;94229.63;2619085;54;20156;-81
2022/09/02 05:36:46;;;;;;;5.10;3.87;;;;;;;18.89;88.48;94285.22;2619388;47;20278;-81
2022/09/02 05:39:14;;;;;;;3.83;3.60;;;;;;;19.27;85.06;94280.69;2620104;54;20195;-81
2022/09/02 05:41:43;;;;;;;4.00;3.70;;;;;;;18.76;84.71;94229.34;2618821;54;20164;-80
2022/09/02 05:44:15;;;;;;;3.58;3.28;;;;;;;18.80;86.35;94270.19;2620351;54;20153;-81
